createdAt,value
2023-01-25T00:01:44.698Z,92.09
2023-01-25T00:05:44.115Z,92.00
2023-01-25T00:09:45.109Z,93.00
2023-01-25T00:13:44.670Z,93.64
2023-01-25T00:17:43.600Z,94.62
2023-01-25T00:21:43.499Z,94.20
2023-01-25T00:25:46.929Z,94.82
2023-01-25T00:29:46.468Z,95.28
2023-01-25T00:33:52.842Z,95.14
2023-01-25T00:37:54.638Z,95.89
2023-01-25T00:41:56.572Z,95.66
2023-01-25T00:46:02.776Z,96.10
2023-01-25T00:50:03.204Z,95.62
2023-01-25T00:54:04.106Z,95.65
2023-01-25T00:58:05.848Z,96.91
2023-01-25T01:02:06.223Z,97.97
2023-01-25T01:06:06.326Z,98.39
2023-01-25T01:10:06.206Z,97.89
2023-01-25T01:14:07.276Z,98.26
2023-01-25T01:18:06.648Z,99.50
2023-01-25T01:22:05.615Z,100.00
2023-01-25T01:26:05.830Z,100.00
2023-01-25T01:30:08.363Z,100.00
2023-01-25T01:34:07.482Z,100.00
2023-01-25T01:38:06.992Z,100.00
2023-01-25T01:42:06.801Z,100.00
2023-01-25T01:46:12.925Z,100.00
2023-01-25T01:50:19.016Z,100.00
2023-01-25T01:54:20.837Z,100.00
2023-01-25T01:58:22.998Z,100.00
2023-01-25T02:02:26.008Z,100.00
2023-01-25T02:06:32.503Z,100.00
2023-01-25T02:10:33.458Z,100.00
2023-01-25T02:14:32.901Z,100.00
2023-01-25T02:18:35.395Z,100.00
2023-01-25T02:22:43.138Z,100.00
2023-01-25T02:26:45.644Z,100.00
2023-01-25T02:30:46.143Z,100.00
2023-01-25T02:34:49.020Z,100.00
2023-01-25T02:38:50.477Z,100.00
2023-01-25T02:42:51.899Z,100.00
2023-01-25T02:46:51.466Z,100.00
2023-01-25T02:50:53.550Z,100.00
2023-01-25T02:54:53.375Z,100.00
2023-01-25T02:58:54.771Z,99.00
2023-01-25T03:02:54.774Z,96.58
2023-01-25T03:06:56.062Z,93.38
2023-01-25T03:10:58.046Z,92.46
2023-01-25T03:15:00.594Z,91.57
2023-01-25T03:19:00.231Z,92.00
2023-01-25T03:23:00.662Z,92.24
2023-01-25T03:27:17.028Z,93.14
2023-01-25T03:31:21.036Z,93.13
2023-01-25T03:35:20.359Z,91.03
2023-01-25T03:39:20.413Z,90.09
2023-01-25T03:43:23.697Z,90.82
2023-01-25T03:47:31.088Z,90.52
2023-01-25T03:51:31.382Z,89.69
2023-01-25T03:55:30.833Z,88.37
2023-01-25T03:59:31.782Z,89.52
2023-01-25T04:03:33.458Z,88.46
2023-01-25T04:07:34.500Z,88.44
2023-01-25T04:11:34.032Z,88.72
2023-01-25T04:15:34.461Z,89.26
2023-01-25T04:19:36.862Z,87.99
2023-01-25T04:23:37.743Z,87.07
2023-01-25T04:27:37.471Z,87.18
2023-01-25T04:31:37.855Z,87.71
2023-01-25T04:35:40.604Z,87.20
2023-01-25T04:39:41.601Z,87.85
2023-01-25T04:43:41.123Z,87.67
2023-01-25T04:47:40.956Z,88.59
2023-01-25T04:51:42.217Z,89.47
2023-01-25T04:55:41.696Z,89.74
2023-01-25T04:59:41.108Z,89.25
2023-01-25T05:03:40.744Z,88.30
2023-01-25T05:07:42.833Z,88.49
2023-01-25T05:11:42.205Z,88.20
2023-01-25T05:15:41.516Z,87.81
2023-01-25T05:19:40.941Z,87.74
2023-01-25T05:23:42.728Z,85.75
2023-01-25T05:27:41.720Z,85.98
2023-01-25T05:31:45.834Z,85.91
2023-01-25T05:35:45.055Z,86.20
2023-01-25T05:39:47.471Z,87.85
2023-01-25T05:43:49.550Z,88.30
2023-01-25T05:47:54.180Z,88.53
2023-01-25T05:51:53.992Z,87.62
2023-01-25T05:55:56.404Z,85.82
2023-01-25T05:59:55.430Z,85.93
2023-01-25T06:03:55.298Z,85.20
2023-01-25T06:07:56.139Z,83.93
2023-01-25T06:11:57.850Z,83.10
2023-01-25T06:15:57.698Z,82.56
2023-01-25T06:20:01.045Z,81.64
2023-01-25T06:24:00.493Z,81.72
2023-01-25T06:28:02.805Z,81.33
2023-01-25T06:32:01.726Z,80.88
2023-01-25T06:36:01.697Z,81.79
2023-01-25T06:40:01.040Z,80.82
2023-01-25T06:44:01.883Z,80.87
2023-01-25T06:48:06.794Z,82.13
2023-01-25T06:52:06.275Z,82.89
2023-01-25T06:56:06.570Z,82.67
2023-01-25T07:00:09.252Z,82.93
2023-01-25T07:04:09.064Z,83.29
2023-01-25T07:08:07.939Z,82.99
2023-01-25T07:12:09.895Z,82.77
2023-01-25T07:16:13.844Z,84.58
2023-01-25T07:20:13.591Z,85.13
2023-01-25T07:24:15.447Z,84.85
2023-01-25T07:28:14.935Z,83.95
2023-01-25T07:32:16.463Z,83.87
2023-01-25T07:36:16.067Z,84.03
2023-01-25T07:40:15.571Z,84.01
2023-01-25T07:44:14.488Z,83.49
2023-01-25T07:48:17.990Z,82.45
2023-01-25T07:52:19.585Z,81.76
2023-01-25T07:56:19.528Z,81.66
2023-01-25T08:00:18.926Z,82.13
2023-01-25T08:04:21.235Z,82.39
2023-01-25T08:08:20.122Z,84.18
2023-01-25T08:12:19.651Z,82.72
2023-01-25T08:16:20.479Z,82.46
2023-01-25T08:20:22.806Z,82.35
2023-01-25T08:24:24.618Z,83.42
2023-01-25T08:28:24.535Z,82.62
2023-01-25T08:32:25.551Z,82.63
2023-01-25T08:36:28.017Z,83.24
2023-01-25T08:40:27.174Z,82.97
2023-01-25T08:44:27.798Z,82.27
2023-01-25T08:48:32.407Z,81.75
2023-01-25T08:52:35.695Z,82.05
2023-01-25T08:56:39.663Z,81.80
2023-01-25T09:00:39.314Z,82.43
2023-01-25T09:04:39.698Z,82.17
2023-01-25T09:08:41.328Z,81.34
2023-01-25T09:12:41.256Z,81.34
2023-01-25T09:16:40.404Z,80.83
2023-01-25T09:20:41.435Z,81.38
2023-01-25T09:24:42.537Z,80.96
2023-01-25T09:28:43.984Z,80.71
2023-01-25T09:32:44.492Z,80.52
2023-01-25T09:36:44.076Z,80.45
2023-01-25T09:40:49.703Z,80.62
2023-01-25T09:44:56.724Z,79.81
2023-01-25T09:49:07.361Z,81.43
2023-01-25T09:53:30.639Z,80.39
2023-01-25T09:57:34.302Z,80.80
2023-01-25T10:01:39.258Z,81.04
2023-01-25T10:05:43.195Z,80.75
2023-01-25T10:09:44.699Z,80.36
2023-01-25T10:13:46.577Z,80.58
2023-01-25T10:17:45.852Z,81.29
2023-01-25T10:21:47.426Z,80.80
2023-01-25T10:25:47.848Z,80.54
2023-01-25T10:29:51.052Z,80.70
2023-01-25T10:33:50.860Z,79.75
2023-01-25T10:37:50.263Z,79.65
2023-01-25T10:41:51.729Z,80.06
2023-01-25T10:45:53.493Z,80.41
2023-01-25T10:49:55.490Z,79.74
2023-01-25T10:54:00.445Z,79.26
2023-01-25T10:58:00.408Z,79.89
2023-01-25T11:02:22.170Z,80.63
2023-01-25T11:06:30.691Z,76.93
2023-01-25T11:10:30.681Z,77.26
2023-01-25T11:14:31.379Z,78.55
2023-01-25T11:18:34.688Z,78.61
2023-01-25T11:22:33.928Z,78.78
2023-01-25T11:26:34.007Z,79.19
2023-01-25T11:30:33.500Z,77.88
2023-01-25T11:34:34.892Z,79.59
2023-01-25T11:38:34.114Z,78.70
2023-01-25T11:42:37.227Z,77.97
2023-01-25T11:46:43.997Z,77.48
2023-01-25T11:50:48.151Z,77.73
2023-01-25T11:54:51.031Z,76.91
2023-01-25T11:58:59.101Z,76.75
2023-01-25T12:03:09.123Z,78.04
2023-01-25T12:07:16.201Z,77.17
2023-01-25T12:11:20.580Z,76.38
2023-01-25T12:15:27.825Z,76.68
2023-01-25T12:19:36.983Z,76.62
2023-01-25T12:23:50.573Z,76.15
2023-01-25T12:28:00.338Z,76.79
2023-01-25T12:32:00.789Z,76.30
2023-01-25T12:36:05.049Z,76.73
2023-01-25T12:40:11.953Z,76.51
2023-01-25T12:44:16.081Z,76.65
2023-01-25T12:48:18.800Z,77.28
2023-01-25T12:52:22.511Z,77.57
2023-01-25T12:56:30.429Z,76.76
2023-01-25T13:00:34.921Z,77.25
2023-01-25T13:04:47.746Z,76.87
2023-01-25T13:08:51.266Z,76.42
2023-01-25T13:12:56.911Z,75.32
2023-01-25T13:17:09.781Z,75.92
2023-01-25T13:21:32.877Z,75.63
2023-01-25T13:25:32.528Z,75.85
2023-01-25T13:29:55.134Z,75.94
2023-01-25T13:33:57.154Z,76.50
2023-01-25T13:37:59.681Z,75.78
2023-01-25T13:41:59.934Z,76.53
2023-01-25T13:45:59.297Z,76.41
2023-01-25T13:50:02.253Z,76.28
2023-01-25T13:54:01.955Z,77.47
2023-01-25T13:58:11.353Z,77.70
2023-01-25T14:02:15.452Z,77.02
2023-01-25T14:06:20.897Z,77.75
2023-01-25T14:10:23.127Z,78.13
2023-01-25T14:14:26.605Z,78.83
2023-01-25T14:18:29.860Z,78.80
2023-01-25T14:22:31.962Z,78.12
2023-01-25T14:26:32.648Z,78.03
2023-01-25T14:30:33.136Z,77.97
2023-01-25T14:34:32.104Z,78.08
2023-01-25T14:38:35.995Z,78.97
2023-01-25T14:42:38.451Z,79.58
2023-01-25T14:46:40.716Z,79.88
2023-01-25T14:50:43.369Z,80.24
2023-01-25T14:54:49.998Z,80.35
2023-01-25T14:58:59.031Z,80.14
2023-01-25T15:03:00.623Z,80.36
2023-01-25T15:07:09.048Z,80.49
2023-01-25T15:11:45.129Z,80.78
2023-01-25T15:15:54.661Z,80.30
2023-01-25T15:19:54.090Z,80.15
2023-01-25T15:23:53.881Z,80.66
2023-01-25T15:27:54.770Z,80.82
2023-01-25T15:31:54.464Z,81.09
2023-01-25T15:35:53.385Z,81.10
2023-01-25T15:39:52.648Z,81.06
2023-01-25T16:53:43.834Z,81.88
2023-01-25T16:58:14.280Z,81.56
2023-01-25T17:02:59.258Z,80.82
2023-01-25T17:07:09.426Z,81.05
2023-01-25T17:11:15.497Z,81.63
2023-01-25T17:15:19.497Z,81.53
2023-01-25T17:19:20.641Z,81.35
2023-01-25T17:23:22.429Z,80.07
2023-01-25T17:27:25.734Z,80.87
2023-01-25T17:31:29.534Z,80.70
2023-01-25T17:35:33.680Z,81.45
2023-01-25T17:39:35.060Z,81.03
2023-01-25T17:43:40.496Z,81.45
2023-01-25T17:47:44.211Z,81.56
2023-01-25T17:51:48.752Z,80.95
2023-01-25T17:55:49.617Z,81.33
2023-01-25T17:59:52.569Z,81.46
2023-01-25T18:03:55.916Z,81.03
2023-01-25T18:07:56.426Z,81.57
2023-01-25T18:11:56.860Z,82.07
2023-01-25T18:20:24.601Z,81.72
2023-01-25T18:24:33.937Z,82.21
2023-01-25T18:28:39.163Z,82.61
2023-01-25T18:32:43.793Z,83.46
2023-01-25T18:36:50.788Z,83.95
2023-01-25T18:40:51.936Z,84.51
2023-01-25T18:44:52.888Z,84.54
2023-01-25T18:48:56.089Z,84.81
2023-01-25T18:52:57.583Z,84.92
2023-01-25T18:56:58.518Z,85.04
2023-01-25T19:01:06.105Z,85.29
2023-01-25T19:05:11.869Z,85.24
2023-01-25T19:09:12.960Z,84.36
2023-01-25T19:13:24.559Z,85.52
2023-01-25T19:17:25.570Z,85.34
2023-01-25T19:21:29.837Z,86.21
2023-01-25T19:25:30.436Z,86.63
2023-01-25T19:29:31.348Z,86.37
2023-01-25T19:33:33.714Z,86.02
2023-01-25T19:37:44.757Z,86.30
2023-01-25T19:41:46.213Z,86.07
2023-01-25T19:45:47.370Z,86.38
2023-01-25T19:49:50.046Z,86.30
2023-01-25T19:54:00.314Z,86.20
2023-01-25T19:58:05.157Z,85.85
2023-01-25T20:02:12.705Z,85.73
2023-01-25T20:06:22.734Z,86.23
2023-01-25T20:10:25.813Z,86.83
2023-01-25T20:14:27.086Z,86.82
2023-01-25T20:18:28.231Z,87.17
2023-01-25T20:22:29.802Z,87.15
2023-01-25T20:26:38.536Z,87.41
2023-01-25T20:30:38.192Z,87.32
2023-01-25T20:34:39.418Z,87.51
2023-01-25T20:38:40.043Z,86.74
2023-01-25T20:42:42.833Z,86.44
2023-01-25T20:46:45.474Z,87.52
2023-01-25T20:50:45.928Z,87.80
2023-01-25T20:54:49.223Z,88.30
2023-01-25T20:58:53.362Z,87.97
2023-01-25T21:02:54.274Z,87.75
2023-01-25T21:06:54.665Z,87.91
2023-01-25T21:10:57.016Z,88.44
2023-01-25T21:15:00.246Z,88.63
2023-01-25T21:19:03.983Z,88.58
2023-01-25T21:23:04.558Z,88.71
2023-01-25T21:27:04.711Z,89.06
2023-01-25T21:31:12.244Z,89.50
2023-01-25T21:35:12.982Z,89.91
2023-01-25T21:39:13.927Z,90.91
2023-01-25T21:43:17.719Z,90.36
2023-01-25T21:47:29.873Z,90.73
2023-01-25T21:51:47.545Z,91.08
2023-01-25T21:55:48.030Z,91.34
2023-01-25T21:59:48.554Z,92.17
2023-01-25T22:03:52.782Z,92.39
2023-01-25T22:07:53.552Z,93.03
2023-01-25T22:11:55.896Z,93.22
2023-01-25T22:16:02.014Z,93.45
2023-01-25T22:20:05.279Z,93.45
2023-01-25T22:24:08.054Z,93.40
2023-01-25T22:28:16.433Z,93.85
2023-01-25T22:32:16.848Z,94.06
2023-01-25T22:36:21.299Z,94.91
2023-01-25T22:40:22.747Z,95.55
2023-01-25T22:44:23.378Z,96.35
2023-01-25T22:48:24.228Z,96.14
2023-01-25T22:52:27.318Z,96.52
2023-01-25T22:56:29.631Z,97.03
2023-01-25T23:00:30.171Z,98.21
2023-01-25T23:04:31.689Z,98.58
2023-01-25T23:08:37.871Z,98.84
2023-01-25T23:12:38.856Z,99.69
2023-01-25T23:16:39.774Z,100.00
2023-01-25T23:20:46.430Z,100.00
2023-01-25T23:24:56.417Z,100.00
2023-01-25T23:28:59.103Z,100.00
2023-01-25T23:33:00.270Z,100.00
2023-01-25T23:37:01.106Z,100.00
2023-01-25T23:41:06.593Z,100.00
2023-01-25T23:45:08.338Z,100.00
2023-01-25T23:49:08.869Z,100.00
2023-01-25T23:53:09.711Z,100.00
2023-01-25T23:57:12.300Z,100.00
